Time;durP1;ratioP1;P1;durP2;ratioP2;P2;SDS_P1;SDS_P2;PMS_P1;PMS_P2;Temp;Humidity;BMP_temperature;BMP_pressure;BME280_temperature;BME280_humidity;BME280_pressure;Samples;Min_cycle;Max_cycle;Signal;HPM_P1;HPM_P2
2022/11/13 00:01:20;;;;;;;16.37;8.70;;;;;;;11.93;100.00;101131.16;1671743;85;21115;-66
2022/11/13 00:03:47;;;;;;;15.75;8.85;;;;;;;11.91;100.00;101134.30;1673139;84;20990;-66
2022/11/13 00:06:15;;;;;;;15.90;8.68;;;;;;;11.81;100.00;101120.12;1670478;85;21063;-66
2022/11/13 00:08:42;;;;;;;14.83;9.05;;;;;;;11.86;100.00;101131.36;1669650;84;20960;-66
2022/11/13 00:11:13;;;;;;;15.15;8.85;;;;;;;11.88;100.00;101127.86;1652570;85;22068;-66
2022/11/13 00:13:41;;;;;;;14.05;8.65;;;;;;;11.90;100.00;101126.02;1666798;84;20904;-66
2022/11/13 00:16:15;;;;;;;15.15;8.50;;;;;;;11.96;100.00;101120.59;1662791;84;21622;-66
2022/11/13 00:18:42;;;;;;;15.55;9.48;;;;;;;11.98;100.00;101124.03;1661784;85;20963;-66
2022/11/13 00:21:13;;;;;;;15.15;8.90;;;;;;;11.98;100.00;101121.41;1670647;85;20942;-66
2022/11/13 00:23:40;;;;;;;17.07;10.08;;;;;;;12.02;100.00;101123.05;1670727;85;20989;-66
2022/11/13 00:26:13;;;;;;;13.85;9.55;;;;;;;11.99;100.00;101123.15;1659790;85;20978;-66
2022/11/13 00:28:40;;;;;;;14.65;8.68;;;;;;;12.02;100.00;101117.81;1664881;85;21050;-67
2022/11/13 00:31:09;;;;;;;16.77;9.73;;;;;;;12.03;100.00;101122.14;1674153;85;20943;-66
2022/11/13 00:33:36;;;;;;;15.58;8.90;;;;;;;12.00;100.00;101127.47;1667215;85;21720;-66
2022/11/13 00:36:05;;;;;;;12.60;8.57;;;;;;;12.06;100.00;101127.27;1646352;85;21874;-66
2022/11/13 00:38:32;;;;;;;13.72;9.05;;;;;;;12.07;100.00;101126.36;1648412;85;20967;-66
2022/11/13 00:40:59;;;;;;;17.82;10.05;;;;;;;12.13;100.00;101115.72;1665717;85;21191;-66
2022/11/13 00:43:27;;;;;;;15.18;9.28;;;;;;;12.15;100.00;101116.50;1669817;84;21459;-66
2022/11/13 00:45:54;;;;;;;15.45;9.30;;;;;;;12.14;100.00;101114.80;1674728;85;20891;-66
2022/11/13 00:48:21;;;;;;;16.20;9.65;;;;;;;12.12;100.00;101117.91;1653330;85;20943;-66
2022/11/13 00:50:48;;;;;;;14.53;10.35;;;;;;;12.12;100.00;101116.61;1669020;85;21497;-66
2022/11/13 00:53:16;;;;;;;15.13;8.75;;;;;;;12.08;100.00;101116.31;1675619;85;22262;-66
2022/11/13 00:55:43;;;;;;;14.15;8.73;;;;;;;11.98;100.00;101114.87;1670394;85;20918;-66
2022/11/13 00:58:14;;;;;;;14.28;9.08;;;;;;;12.00;100.00;101110.00;1658751;85;20950;-66
2022/11/13 01:00:45;;;;;;;14.73;9.43;;;;;;;12.06;100.00;101099.78;1668619;85;21584;-66
2022/11/13 01:03:12;;;;;;;15.35;9.18;;;;;;;12.07;100.00;101101.48;1674482;85;21516;-66
2022/11/13 01:05:42;;;;;;;12.98;9.33;;;;;;;11.89;100.00;101085.06;1663150;85;21209;-66
2022/11/13 01:08:11;;;;;;;15.20;10.28;;;;;;;11.98;100.00;101096.55;1674195;84;20943;-66
2022/11/13 01:10:42;;;;;;;15.28;8.58;;;;;;;11.92;100.00;101096.75;1671951;84;20963;-66
2022/11/13 01:13:09;;;;;;;15.83;10.00;;;;;;;11.90;100.00;101099.85;1664611;84;20935;-66
2022/11/13 01:15:42;;;;;;;17.17;9.90;;;;;;;11.86;100.00;101093.41;1688592;84;20918;-66
2022/11/13 01:18:08;;;;;;;18.07;9.60;;;;;;;11.86;100.00;101093.41;1686119;84;21355;-66
2022/11/13 01:20:35;;;;;;;17.57;9.37;;;;;;;11.89;100.00;101099.46;1697187;83;20942;-66
2022/11/13 01:23:02;;;;;;;17.45;8.78;;;;;;;11.86;100.00;101096.48;1693227;83;21748;-66
2022/11/13 01:25:29;;;;;;;13.25;9.03;;;;;;;11.89;100.00;101090.30;1687838;84;20941;-66
2022/11/13 01:27:56;;;;;;;14.35;8.83;;;;;;;11.89;100.00;101085.06;1696814;83;21519;-66
2022/11/13 01:30:23;;;;;;;17.60;9.50;;;;;;;11.87;100.00;101085.09;1704934;83;21906;-66
2022/11/13 01:32:50;;;;;;;14.18;9.28;;;;;;;11.87;100.00;101087.72;1697867;83;21371;-66
2022/11/13 01:35:17;;;;;;;12.98;10.15;;;;;;;11.85;100.00;101091.70;1703135;82;20875;-66
2022/11/13 01:37:43;;;;;;;17.00;9.85;;;;;;;11.83;100.00;101094.78;1697056;83;20970;-66
2022/11/13 01:40:12;;;;;;;13.83;9.03;;;;;;;11.84;100.00;101096.48;1700696;83;20903;-66
2022/11/13 01:42:39;;;;;;;14.63;8.85;;;;;;;11.86;100.00;101093.41;1684860;83;21059;-66
2022/11/13 01:45:59;;;;;;;12.82;9.25;;;;;;;11.85;100.00;101087.78;1702037;83;20915;-66
2022/11/13 01:48:39;;;;;;;14.53;9.10;;;;;;;11.80;100.00;101088.33;1693955;83;21481;-66
2022/11/13 01:51:20;;;;;;;15.18;8.28;;;;;;;11.81;100.00;101083.95;1700420;83;21568;-66
2022/11/13 01:53:47;;;;;;;16.87;9.28;;;;;;;11.81;100.00;101077.41;1696957;83;20957;-66
2022/11/13 01:56:19;;;;;;;20.45;9.15;;;;;;;11.80;100.00;101081.80;1700599;83;21157;-66
2022/11/13 01:58:48;;;;;;;13.38;9.40;;;;;;;11.82;100.00;101081.30;1691310;83;21071;-66
2022/11/13 02:01:15;;;;;;;14.78;8.80;;;;;;;11.81;100.00;101083.50;1663090;85;20958;-66
2022/11/13 02:03:42;;;;;;;16.65;9.25;;;;;;;11.73;100.00;101059.31;1686434;84;20978;-66
2022/11/13 02:06:10;;;;;;;14.75;8.30;;;;;;;11.83;100.00;101081.70;1697539;83;21019;-66
2022/11/13 02:08:38;;;;;;;16.02;8.68;;;;;;;11.84;100.00;101084.70;1666061;84;21880;-66
2022/11/13 02:11:05;;;;;;;14.33;9.18;;;;;;;11.78;100.00;101057.42;1696954;82;20949;-66
2022/11/13 02:13:33;;;;;;;15.35;8.03;;;;;;;11.84;100.00;101067.70;1694865;83;28066;-66
2022/11/13 02:16:00;;;;;;;13.22;9.30;;;;;;;11.85;100.00;101061.61;1698446;83;20914;-66
2022/11/13 02:18:28;;;;;;;;;;;;;;;11.84;100.00;101064.23;1701783;83;21594;-66
2022/11/13 02:21:33;;;;;;;15.90;7.83;;;;;;;11.81;100.00;101066.94;1680757;84;21134;-66
2022/11/13 02:24:33;;;;;;;13.10;8.73;;;;;;;11.79;100.00;101066.12;1679791;84;21551;-66
2022/11/13 02:27:06;;;;;;;12.18;8.03;;;;;;;11.80;100.00;101062.16;1691934;83;20993;-66
2022/11/13 02:29:33;;;;;;;11.05;7.65;;;;;;;11.82;100.00;101061.67;1696486;84;20909;-66
2022/11/13 02:32:00;;;;;;;17.77;8.73;;;;;;;11.60;100.00;101035.77;1668964;84;21124;-66
2022/11/13 02:34:26;;;;;;;12.82;8.08;;;;;;;11.71;100.00;101063.77;1682214;83;21021;-66
2022/11/13 02:36:53;;;;;;;15.47;8.37;;;;;;;11.72;100.00;101065.47;1670470;84;20929;-66
2022/11/13 02:39:20;;;;;;;13.45;7.72;;;;;;;11.69;100.00;101063.41;1682561;84;21193;-66
2022/11/13 02:41:47;;;;;;;11.68;7.47;;;;;;;11.70;100.00;101071.19;1674575;84;20926;-66
2022/11/13 02:44:13;;;;;;;12.83;8.33;;;;;;;11.69;100.00;101073.41;1695143;83;20942;-66
2022/11/13 02:46:41;;;;;;;15.07;9.87;;;;;;;11.65;100.00;101074.42;1703346;83;21060;-66
2022/11/13 02:49:07;;;;;;;11.88;8.28;;;;;;;11.64;100.00;101072.69;1702643;83;21497;-66
2022/11/13 02:51:34;;;;;;;12.37;7.90;;;;;;;11.68;100.00;101075.64;1702281;83;20890;-66
2022/11/13 02:54:01;;;;;;;9.50;7.57;;;;;;;11.69;100.00;101081.27;1696912;83;21107;-66
2022/11/13 02:56:27;;;;;;;13.98;8.18;;;;;;;11.71;100.00;101073.38;1701954;83;21475;-66
2022/11/13 02:58:54;;;;;;;12.43;7.07;;;;;;;11.67;100.00;101069.98;1701183;84;21873;-66
2022/11/13 03:01:21;;;;;;;10.03;8.03;;;;;;;11.57;100.00;101073.80;1697157;83;20887;-66
2022/11/13 03:03:48;;;;;;;13.95;7.87;;;;;;;11.51;100.00;101070.02;1704851;83;21453;-66
2022/11/13 03:06:14;;;;;;;13.45;7.08;;;;;;;11.48;100.00;101074.05;1674568;84;21040;-66
2022/11/13 03:08:41;;;;;;;10.63;7.07;;;;;;;11.46;100.00;101073.25;1696692;83;20937;-66
2022/11/13 03:11:10;;;;;;;13.70;7.17;;;;;;;11.45;100.00;101079.37;1687841;84;21052;-67
2022/11/13 03:13:40;;;;;;;13.30;7.28;;;;;;;11.43;100.00;101076.36;1698651;83;20916;-66
2022/11/13 03:16:15;;;;;;;12.25;6.97;;;;;;;11.37;100.00;101059.97;1677331;84;21594;-66
2022/11/13 03:18:42;;;;;;;13.13;7.20;;;;;;;11.46;100.00;101075.88;1669963;84;21072;-66
2022/11/13 03:21:13;;;;;;;11.80;7.15;;;;;;;11.46;100.00;101070.64;1672689;85;20975;-66
2022/11/13 03:23:43;;;;;;;13.20;8.65;;;;;;;11.49;100.00;101070.55;1669646;85;21593;-66
2022/11/13 03:26:13;;;;;;;8.13;6.37;;;;;;;11.52;100.00;101063.91;1674263;85;20918;-66
2022/11/13 03:28:40;;;;;;;9.38;6.60;;;;;;;11.57;100.00;101059.41;1665317;85;20970;-66
2022/11/13 03:31:07;;;;;;;13.48;6.95;;;;;;;11.56;100.00;101060.29;1678071;84;21560;-66
2022/11/13 03:33:34;;;;;;;12.28;6.65;;;;;;;11.57;100.00;101064.64;1669916;85;20943;-66
2022/11/13 03:36:01;;;;;;;11.63;6.62;;;;;;;11.61;100.00;101059.70;1646368;85;21044;-66
2022/11/13 03:38:27;;;;;;;10.98;6.53;;;;;;;11.65;100.00;101056.11;1655458;85;20903;-66
2022/11/13 03:40:54;;;;;;;13.53;6.30;;;;;;;11.67;100.00;101067.36;1642312;85;20971;-67
2022/11/13 03:43:21;;;;;;;12.57;5.43;;;;;;;11.70;100.00;101063.80;1678747;85;21437;-66
2022/11/13 03:45:47;;;;;;;11.28;6.60;;;;;;;11.71;100.00;101065.08;1666875;83;20931;-66
2022/11/13 03:48:15;;;;;;;8.63;5.87;;;;;;;11.70;100.00;101056.80;1677158;85;21211;-66
2022/11/13 03:50:44;;;;;;;;;;;;;;;11.71;100.00;101061.15;1675453;85;21014;-66
2022/11/13 03:53:11;;;;;;;11.85;6.70;;;;;;;11.70;100.00;101059.41;1666206;85;20096;-66
2022/11/13 03:55:37;;;;;;;9.45;5.87;;;;;;;11.69;100.00;101062.09;1678857;84;20992;-67
2022/11/13 03:58:04;;;;;;;10.57;7.03;;;;;;;11.69;100.00;101062.95;1675941;85;20975;-66
2022/11/13 04:00:32;;;;;;;10.60;6.83;;;;;;;11.66;100.00;101065.66;1672171;85;21866;-66
2022/11/13 04:02:59;;;;;;;12.58;6.12;;;;;;;11.64;100.00;101068.31;1655773;85;20946;-66
2022/11/13 04:05:26;;;;;;;7.97;5.78;;;;;;;11.62;100.00;101070.56;1657134;85;20943;-66
2022/11/13 04:07:53;;;;;;;9.40;5.53;;;;;;;11.64;100.00;101067.45;1668047;85;20975;-66
2022/11/13 04:10:20;;;;;;;11.10;5.90;;;;;;;11.64;100.00;101060.92;1678277;85;21504;-66
2022/11/13 04:12:46;;;;;;;13.43;6.33;;;;;;;11.56;100.00;101051.13;1678652;85;21069;-66
2022/11/13 04:15:13;;;;;;;10.28;6.70;;;;;;;11.54;100.00;101055.55;1659824;85;21021;-66
2022/11/13 04:17:40;;;;;;;8.85;5.75;;;;;;;11.54;100.00;101060.78;1666436;85;20892;-66
2022/11/13 04:20:08;;;;;;;9.55;5.83;;;;;;;11.57;100.00;101069.41;1674288;85;21002;-66
2022/11/13 04:22:35;;;;;;;11.38;8.15;;;;;;;11.57;100.00;101069.88;1667062;85;20954;-66
2022/11/13 04:25:02;;;;;;;12.47;6.97;;;;;;;11.58;100.00;101076.34;1653122;85;21089;-66
2022/11/13 04:27:29;;;;;;;13.40;6.22;;;;;;;11.58;100.00;101076.80;1674959;85;21539;-66
2022/11/13 04:29:56;;;;;;;10.03;7.00;;;;;;;11.58;100.00;101070.27;1661518;85;20911;-67
2022/11/13 04:32:22;;;;;;;11.07;7.03;;;;;;;11.58;100.00;101067.65;1673280;85;21449;-66
2022/11/13 04:34:49;;;;;;;10.68;6.65;;;;;;;11.57;100.00;101065.95;1672098;85;21201;-66
2022/11/13 04:37:16;;;;;;;12.17;7.07;;;;;;;11.57;100.00;101069.41;1660099;85;21559;-66
2022/11/13 04:39:42;;;;;;;9.87;6.00;;;;;;;11.53;100.00;101067.77;1664816;85;20982;-66
2022/11/13 04:44:56;;;;;;;9.43;5.62;;;;;;;11.55;100.00;101067.74;1664497;85;28673;-66
2022/11/13 04:47:23;;;;;;;8.20;5.60;;;;;;;11.56;100.00;101072.91;1671097;84;20938;-66
2022/11/13 04:49:50;;;;;;;8.50;6.47;;;;;;;11.54;100.00;101069.94;1672859;85;21030;-66
2022/11/13 04:52:16;;;;;;;9.13;5.33;;;;;;;11.61;100.00;101074.09;1670781;84;20937;-66
2022/11/13 04:54:43;;;;;;;11.08;6.53;;;;;;;11.60;100.00;101063.23;1673353;85;20991;-66
2022/11/13 04:57:10;;;;;;;10.48;6.17;;;;;;;11.60;100.00;101063.23;1668725;84;20998;-66
2022/11/13 04:59:36;;;;;;;14.50;9.63;;;;;;;11.63;100.00;101060.52;1656608;85;20923;-66
2022/11/13 05:02:04;;;;;;;10.33;6.00;;;;;;;11.63;100.00;101060.52;1661588;85;21454;-66
2022/11/13 05:04:30;;;;;;;10.88;6.15;;;;;;;11.57;100.00;101062.02;1675194;85;21426;-66
2022/11/13 05:06:57;;;;;;;8.30;5.70;;;;;;;11.47;100.00;101065.34;1657936;85;20907;-66
2022/11/13 05:09:24;;;;;;;9.60;5.57;;;;;;;11.47;100.00;101074.95;1671037;85;21066;-66
2022/11/13 05:11:50;;;;;;;9.55;5.72;;;;;;;11.49;100.00;101074.47;1661502;85;20998;-66
2022/11/13 05:14:17;;;;;;;11.57;7.27;;;;;;;11.52;100.00;101073.07;1685146;83;21861;-66
2022/11/13 05:16:44;;;;;;;9.98;6.42;;;;;;;11.51;100.00;101065.68;1695882;83;21325;-66
2022/11/13 05:19:11;;;;;;;8.05;5.15;;;;;;;11.54;100.00;101068.63;1698351;83;20911;-66
2022/11/13 05:21:38;;;;;;;13.70;7.57;;;;;;;11.53;100.00;101064.31;1695859;83;20925;-66
2022/11/13 05:24:08;;;;;;;12.40;6.80;;;;;;;11.56;100.00;101062.91;1696874;83;21271;-66
2022/11/13 05:26:38;;;;;;;9.50;6.22;;;;;;;11.59;100.00;101069.34;1682367;84;21860;-66
2022/11/13 05:29:04;;;;;;;8.35;5.72;;;;;;;11.58;100.00;101071.58;1684479;84;21526;-67
2022/11/13 05:31:31;;;;;;;10.75;6.37;;;;;;;11.45;100.00;101053.22;1697131;83;20966;-66
2022/11/13 05:33:58;;;;;;;11.38;5.12;;;;;;;11.55;100.00;101071.67;1698176;83;20966;-66
2022/11/13 05:36:25;;;;;;;7.72;5.42;;;;;;;11.54;100.00;101068.63;1705540;83;20957;-66
2022/11/13 05:38:52;;;;;;;8.80;6.10;;;;;;;11.54;100.00;101069.94;1701211;83;21029;-66
2022/11/13 05:41:21;;;;;;;10.78;5.65;;;;;;;11.41;100.00;101078.61;1697383;83;21034;-66
2022/11/13 05:43:48;;;;;;;9.75;5.37;;;;;;;11.38;100.00;101079.55;1699280;83;20966;-66
2022/11/13 05:46:19;;;;;;;9.18;6.28;;;;;;;11.32;100.00;101079.73;1698076;83;21444;-66
2022/11/13 05:48:49;;;;;;;9.08;5.10;;;;;;;11.34;100.00;101083.17;1695002;83;21503;-66
2022/11/13 05:51:22;;;;;;;14.53;5.17;;;;;;;11.35;100.00;101079.64;1685464;84;21022;-66
2022/11/13 05:53:48;;;;;;;8.73;5.67;;;;;;;11.36;100.00;101076.11;1664690;84;21362;-66
2022/11/13 05:56:21;;;;;;;10.05;5.92;;;;;;;11.34;100.00;101077.94;1703622;83;21046;-66
2022/11/13 05:58:49;;;;;;;13.08;7.25;;;;;;;11.35;100.00;101082.26;1666843;85;21021;-66
2022/11/13 06:01:26;;;;;;;10.80;6.90;;;;;;;11.29;100.00;101090.28;1683710;84;20977;-66
2022/11/13 06:03:55;;;;;;;12.50;8.38;;;;;;;11.25;100.00;101093.87;1698424;83;21041;-66
2022/11/13 06:06:24;;;;;;;15.30;7.70;;;;;;;11.26;100.00;101086.45;1660884;85;21100;-66
2022/11/13 06:08:53;;;;;;;9.40;7.28;;;;;;;11.21;100.00;101087.03;1686059;84;20958;-66
2022/11/13 06:11:25;;;;;;;14.05;7.62;;;;;;;11.21;100.00;101087.03;1700213;83;21474;-66
2022/11/13 06:13:53;;;;;;;6.75;5.78;;;;;;;11.21;100.00;101092.25;1698287;83;21104;-66
2022/11/13 06:16:35;;;;;;;11.53;8.85;;;;;;;11.18;100.00;101085.35;1696729;83;21057;-66
2022/11/13 06:19:06;;;;;;;16.05;8.15;;;;;;;11.23;100.00;101083.92;1663303;84;20973;-66
2022/11/13 06:21:38;;;;;;;10.68;7.28;;;;;;;11.34;100.00;101087.09;1674392;83;21006;-66
2022/11/13 06:24:06;;;;;;;11.48;8.65;;;;;;;11.37;100.00;101090.05;1697103;83;20966;-66
2022/11/13 06:26:35;;;;;;;14.30;8.65;;;;;;;11.33;100.00;101090.59;1700585;83;20954;-66
2022/11/13 06:29:03;;;;;;;17.65;7.85;;;;;;;11.32;100.00;101101.95;1678335;83;21145;-66
2022/11/13 06:31:34;;;;;;;12.70;8.20;;;;;;;11.15;100.00;101086.75;1689347;84;21461;-66
2022/11/13 06:34:01;;;;;;;9.68;7.60;;;;;;;11.15;100.00;101086.75;1700535;83;20990;-66
2022/11/13 06:36:31;;;;;;;12.40;8.18;;;;;;;11.22;100.00;101107.03;1695937;83;20949;-66
2022/11/13 06:38:58;;;;;;;11.33;8.35;;;;;;;11.20;100.00;101103.59;1699707;83;21052;-66
2022/11/13 06:41:28;;;;;;;13.45;7.97;;;;;;;11.15;100.00;101108.11;1695090;83;21045;-66
2022/11/13 06:43:57;;;;;;;14.20;7.65;;;;;;;11.14;100.00;101112.46;1690782;83;20938;-66
2022/11/13 06:46:26;;;;;;;10.88;7.42;;;;;;;11.28;100.00;101114.70;1679301;84;20962;-66
2022/11/13 06:48:53;;;;;;;11.90;7.25;;;;;;;11.30;100.00;101112.91;1697801;83;20960;-66
2022/11/13 06:51:23;;;;;;;12.35;7.53;;;;;;;11.30;100.00;101112.91;1699410;83;20942;-66
2022/11/13 06:53:50;;;;;;;10.15;7.70;;;;;;;11.35;100.00;101116.25;1696054;83;22388;-66
2022/11/13 06:56:18;;;;;;;10.65;6.80;;;;;;;11.40;100.00;101121.36;1697083;83;20934;-66
2022/11/13 06:58:45;;;;;;;12.70;7.00;;;;;;;11.41;100.00;101126.53;1696275;83;20985;-66
2022/11/13 07:01:16;;;;;;;11.43;6.95;;;;;;;11.40;100.00;101126.14;1699056;83;21021;-66
2022/11/13 07:03:43;;;;;;;12.03;6.62;;;;;;;11.41;100.00;101126.53;1699686;83;21013;-66
2022/11/13 07:06:14;;;;;;;10.78;6.90;;;;;;;11.47;100.00;101123.34;1696713;83;21946;-66
2022/11/13 07:08:42;;;;;;;10.85;6.08;;;;;;;11.43;100.00;101122.13;1695297;84;21452;-66
2022/11/13 07:11:16;;;;;;;10.58;6.72;;;;;;;11.39;100.00;101125.71;1694923;83;20996;-66
2022/11/13 07:13:44;;;;;;;8.33;5.65;;;;;;;11.42;100.00;101121.70;1691809;83;20958;-66
2022/11/13 07:16:11;;;;;;;8.50;6.12;;;;;;;11.39;100.00;101120.48;1683201;84;20966;-67
2022/11/13 07:18:38;;;;;;;11.00;6.67;;;;;;;11.34;100.00;101117.16;1694039;83;22173;-66
2022/11/13 07:21:08;;;;;;;8.90;6.35;;;;;;;11.37;100.00;101110.96;1681329;84;20969;-66
2022/11/13 07:23:38;;;;;;;11.57;5.92;;;;;;;11.39;100.00;101117.02;1676261;84;20970;-66
2022/11/13 07:26:05;;;;;;;11.40;6.47;;;;;;;11.41;100.00;101120.45;1684554;84;20954;-66
2022/11/13 07:28:32;;;;;;;10.43;6.37;;;;;;;11.42;100.00;101125.63;1681531;84;21115;-66
2022/11/13 07:30:59;;;;;;;11.53;6.77;;;;;;;11.39;100.00;101120.94;1692991;83;21810;-65
2022/11/13 07:33:26;;;;;;;9.58;6.80;;;;;;;11.41;100.00;101116.08;1676862;84;20950;-66
2022/11/13 07:35:56;;;;;;;11.75;6.50;;;;;;;11.41;100.00;101116.08;1681458;84;21426;-65
2022/11/13 07:38:23;;;;;;;10.93;7.15;;;;;;;11.43;100.00;101122.13;1687624;84;21453;-66
2022/11/13 07:40:50;;;;;;;10.90;6.83;;;;;;;11.43;100.00;101122.13;1692416;83;20913;-66
2022/11/13 07:43:17;;;;;;;16.67;10.65;;;;;;;11.48;100.00;101122.43;1682685;84;21080;-66
2022/11/13 07:45:44;;;;;;;23.17;15.30;;;;;;;11.52;100.00;101118.84;1685422;84;20960;-66
2022/11/13 07:48:11;;;;;;;14.10;8.48;;;;;;;11.51;100.00;101121.03;1681720;83;21009;-65
2022/11/13 07:50:38;;;;;;;9.53;6.37;;;;;;;11.45;100.00;101127.30;1679626;84;20934;-65
2022/11/13 07:53:07;;;;;;;12.50;8.73;;;;;;;11.56;100.00;101123.92;1693257;83;20975;-66
2022/11/13 07:55:35;;;;;;;13.53;9.23;;;;;;;11.51;100.00;101121.91;1682581;84;20987;-66
2022/11/13 07:58:03;;;;;;;12.60;8.50;;;;;;;11.43;100.00;101103.81;1678102;84;21084;-65
2022/11/13 08:00:33;;;;;;;14.00;9.20;;;;;;;11.68;100.00;101124.04;1691212;83;21120;-66
2022/11/13 08:03:10;;;;;;;17.40;8.60;;;;;;;11.68;100.00;101124.04;1681823;84;20973;-66
2022/11/13 08:05:38;;;;;;;13.50;8.93;;;;;;;11.79;100.00;101121.96;1691522;83;20918;-66
2022/11/13 08:08:06;;;;;;;13.55;8.98;;;;;;;11.97;100.00;101115.78;1680530;84;21047;-66
2022/11/13 08:10:36;;;;;;;13.30;8.20;;;;;;;12.05;100.00;101120.34;1681931;84;20934;-66
2022/11/13 08:13:06;;;;;;;12.33;7.30;;;;;;;12.01;100.00;101101.69;1692555;83;20962;-66
2022/11/13 08:15:36;;;;;;;10.98;7.00;;;;;;;12.08;100.00;101115.85;1684396;83;20939;-66
2022/11/13 08:18:04;;;;;;;12.82;7.58;;;;;;;11.99;100.00;101096.97;1674308;85;21543;-66
2022/11/13 08:20:32;;;;;;;10.03;7.17;;;;;;;12.17;100.00;101110.78;1673178;85;21180;-66
2022/11/13 08:23:00;;;;;;;13.03;8.78;;;;;;;12.28;100.00;101115.22;1667932;85;20959;-66
2022/11/13 08:25:29;;;;;;;8.90;6.62;;;;;;;12.42;100.00;101119.16;1672992;85;21011;-66
2022/11/13 08:27:56;;;;;;;8.68;6.15;;;;;;;12.51;100.00;101116.23;1660747;85;21002;-66
2022/11/13 08:30:25;;;;;;;17.35;6.85;;;;;;;12.61;100.00;101124.66;1669697;85;20942;-66
2022/11/13 08:32:53;;;;;;;10.75;6.00;;;;;;;12.67;100.00;101118.75;1664350;85;21722;-65
2022/11/13 08:35:21;;;;;;;7.35;4.67;;;;;;;12.69;100.00;101120.88;1665919;85;20959;-66
2022/11/13 08:37:47;;;;;;;;;;;;;;;12.65;100.00;101121.86;1658336;85;21572;-65
2022/11/13 08:40:14;;;;;;;9.95;4.70;;;;;;;12.57;100.00;101121.27;1658168;85;20107;-66
2022/11/13 08:42:41;;;;;;;8.43;4.97;;;;;;;12.54;100.00;101116.13;1637803;85;20983;-66
2022/11/13 08:45:09;;;;;;;6.22;3.85;;;;;;;12.54;100.00;101124.84;1664081;85;21077;-66
2022/11/13 08:47:36;;;;;;;8.90;4.03;;;;;;;12.54;100.00;101122.67;1675128;84;20971;-65
2022/11/13 08:50:05;;;;;;;7.20;4.00;;;;;;;12.53;100.00;101122.28;1667763;84;20987;-66
2022/11/13 08:52:32;;;;;;;7.37;3.67;;;;;;;12.49;99.97;101116.30;1663245;85;20959;-66
2022/11/13 08:54:59;;;;;;;7.90;3.77;;;;;;;12.44;100.00;101112.12;1674389;85;20955;-66
2022/11/13 08:57:25;;;;;;;6.97;3.73;;;;;;;12.44;100.00;101118.66;1668868;84;20997;-66
2022/11/13 08:59:52;;;;;;;6.30;3.07;;;;;;;12.40;99.71;101130.13;1664683;85;20919;-66
2022/11/13 09:02:18;;;;;;;5.23;2.73;;;;;;;12.30;99.12;101130.44;1664946;85;20926;-66
2022/11/13 09:04:46;;;;;;;7.72;4.12;;;;;;;12.24;99.49;101125.41;1650113;85;20888;-65
2022/11/13 09:07:12;;;;;;;10.55;4.20;;;;;;;12.21;99.05;101128.13;1642871;85;20888;-66
2022/11/13 09:09:39;;;;;;;9.50;4.07;;;;;;;12.15;99.27;101132.22;1662563;85;22134;-66
2022/11/13 09:12:06;;;;;;;9.83;4.50;;;;;;;12.15;99.35;101132.22;1669368;85;20974;-65
2022/11/13 09:14:33;;;;;;;;;;;;;;;12.15;99.54;101134.83;1676730;85;20960;-66
2022/11/13 09:16:59;;;;;;;10.45;5.50;;;;;;;12.17;99.62;101127.80;1699066;83;20130;-66
2022/11/13 09:19:26;;;;;;;10.53;5.33;;;;;;;12.18;99.75;101129.50;1680358;83;21060;-66
2022/11/13 09:21:54;;;;;;;10.18;3.72;;;;;;;12.24;99.25;101135.02;1694023;83;21037;-66
2022/11/13 09:24:20;;;;;;;;;;;;;;;12.35;99.10;101136.84;1691791;84;20958;-66
2022/11/13 09:26:47;;;;;;;7.00;3.42;;;;;;;12.36;99.62;101128.53;1675244;84;20145;-66
2022/11/13 09:29:15;;;;;;;4.28;2.40;;;;;;;12.44;99.99;101123.91;1680173;84;20949;-65
2022/11/13 09:31:42;;;;;;;4.08;2.35;;;;;;;12.57;99.86;101123.88;1671533;84;20936;-66
2022/11/13 09:34:09;;;;;;;5.53;2.95;;;;;;;12.69;99.81;101128.73;1689890;83;27246;-66
2022/11/13 09:36:36;;;;;;;4.35;3.17;;;;;;;12.76;99.66;101119.73;1679725;83;20962;-65
2022/11/13 09:39:04;;;;;;;6.35;2.62;;;;;;;12.82;99.27;101115.20;1670010;84;20953;-66
2022/11/13 09:42:02;;;;;;;5.95;2.75;;;;;;;12.82;99.06;101116.51;1668793;84;21021;-66
2022/11/13 09:44:49;;;;;;;4.75;2.62;;;;;;;12.87;98.81;101119.38;1669908;84;20978;-66
2022/11/13 09:47:45;;;;;;;4.30;2.00;;;;;;;12.88;98.11;101120.23;1649989;85;21218;-66
2022/11/13 09:50:26;;;;;;;4.03;1.85;;;;;;;12.73;97.43;101121.16;1679383;84;20967;-66
2022/11/13 09:52:54;;;;;;;4.40;2.20;;;;;;;12.75;97.89;101115.42;1669067;84;20967;-65
2022/11/13 09:55:28;;;;;;;4.12;2.00;;;;;;;12.80;98.08;101122.25;1661185;85;20982;-66
2022/11/13 09:58:09;;;;;;;3.70;1.62;;;;;;;12.91;97.96;101109.62;1673274;84;20985;-66
2022/11/13 10:00:36;;;;;;;4.25;2.20;;;;;;;12.90;97.14;101115.80;1618380;87;21210;-66
2022/11/13 10:03:31;;;;;;;4.90;1.47;;;;;;;12.84;97.30;101116.02;1620559;87;20951;-67
2022/11/13 10:06:09;;;;;;;2.22;1.25;;;;;;;12.93;97.53;101109.13;1619856;87;22448;-66
2022/11/13 10:08:51;;;;;;;4.62;1.40;;;;;;;12.91;97.30;101107.01;1621936;87;20971;-66
2022/11/13 10:11:31;;;;;;;2.20;1.10;;;;;;;12.92;97.24;101103.50;1628681;87;21597;-67
2022/11/13 10:14:09;;;;;;;1.65;1.20;;;;;;;12.90;96.68;101115.33;1615524;87;21532;-66
2022/11/13 10:16:52;;;;;;;1.55;0.70;;;;;;;12.88;96.72;101114.98;1625259;87;21019;-66
2022/11/13 10:19:56;;;;;;;2.08;0.80;;;;;;;12.84;96.63;101110.77;1623140;87;21040;-66
2022/11/13 10:22:58;;;;;;;3.05;1.70;;;;;;;12.75;96.48;101102.31;1641109;86;20900;-66
2022/11/13 10:25:31;;;;;;;1.98;0.80;;;;;;;12.75;96.26;101104.93;1625093;87;21007;-66
2022/11/13 10:28:01;;;;;;;2.50;1.00;;;;;;;12.76;96.37;101094.84;1623955;86;21082;-67
2022/11/13 10:30:28;;;;;;;0.55;0.50;;;;;;;12.78;96.06;101084.78;1633605;86;21021;-66
2022/11/13 10:32:58;;;;;;;;;;;;;;;12.75;95.92;101083.97;1636113;86;21482;-66
2022/11/13 10:35:46;;;;;;;1.07;0.88;;;;;;;12.80;95.66;101085.55;1634933;86;20165;-66
2022/11/13 10:38:21;;;;;;;1.12;0.80;;;;;;;12.75;94.64;101089.20;1633916;86;20977;-66
2022/11/13 10:40:47;;;;;;;3.87;1.10;;;;;;;12.66;94.88;101084.29;1625901;85;21591;-66
2022/11/13 10:43:19;;;;;;;2.15;0.70;;;;;;;12.78;95.44;101072.98;1645043;85;20931;-66
2022/11/13 10:45:59;;;;;;;3.67;0.80;;;;;;;12.87;95.13;101064.79;1632544;85;21001;-66
2022/11/13 10:48:33;;;;;;;4.83;2.15;;;;;;;12.93;95.05;101065.88;1644593;85;21505;-66
2022/11/13 10:51:04;;;;;;;4.45;2.42;;;;;;;13.05;95.20;101073.32;1644963;85;20975;-67
2022/11/13 10:53:41;;;;;;;3.12;1.50;;;;;;;13.14;95.13;101065.11;1674800;83;21043;-67
2022/11/13 10:56:31;;;;;;;4.10;1.60;;;;;;;13.24;95.00;101066.08;1654328;84;21045;-65
2022/11/13 10:59:13;;;;;;;6.53;1.87;;;;;;;13.31;94.70;101061.05;1678323;85;20923;-65
2022/11/13 11:01:43;;;;;;;3.62;1.75;;;;;;;13.39;94.45;101065.55;1670724;85;21127;-66
2022/11/13 11:04:23;;;;;;;4.37;1.72;;;;;;;13.42;94.14;101069.38;1677884;85;20986;-65
2022/11/13 11:06:51;;;;;;;4.28;2.02;;;;;;;13.38;93.91;101074.32;1669766;85;20997;-66
2022/11/13 11:09:29;;;;;;;7.30;1.95;;;;;;;13.29;93.69;101071.59;1667027;85;20942;-65
2022/11/13 11:12:15;;;;;;;3.40;1.95;;;;;;;13.14;93.22;101074.75;1662781;85;20971;-66
2022/11/13 11:14:59;;;;;;;4.50;2.13;;;;;;;13.09;93.38;101074.91;1672098;85;21010;-65
2022/11/13 11:17:40;;;;;;;4.00;2.00;;;;;;;13.02;93.34;101081.27;1674483;83;21453;-65
2022/11/13 11:20:28;;;;;;;4.58;2.15;;;;;;;12.98;93.30;101082.30;1671472;85;21496;-65
2022/11/13 11:23:21;;;;;;;4.33;1.92;;;;;;;12.98;93.27;101082.30;1678265;85;20948;-65
2022/11/13 11:25:59;;;;;;;5.33;2.22;;;;;;;12.99;93.30;101072.20;1650457;85;20927;-67
2022/11/13 11:28:37;;;;;;;5.00;2.83;;;;;;;13.02;93.13;101062.91;1677176;85;21401;-67
2022/11/13 11:31:27;;;;;;;3.98;1.98;;;;;;;12.96;92.77;101060.06;1672366;85;21555;-65